createdAt,value
2023-05-01T00:00:18.315Z,10.19
2023-05-01T00:03:11.994Z,10.20
2023-05-01T00:06:02.532Z,10.25
2023-05-01T00:08:51.392Z,10.26
2023-05-01T00:11:40.300Z,10.13
2023-05-01T00:14:30.733Z,9.93
2023-05-01T00:17:19.530Z,9.92
2023-05-01T00:20:10.228Z,10.02
2023-05-01T00:22:59.129Z,9.95
2023-05-01T00:25:47.995Z,10.01
2023-05-01T00:28:36.862Z,10.00
2023-05-01T00:31:27.307Z,9.94
2023-05-01T00:34:16.153Z,9.99
2023-05-01T00:37:05.013Z,9.87
2023-05-01T00:39:54.385Z,9.92
2023-05-01T00:42:43.664Z,10.04
2023-05-01T00:45:32.536Z,10.00
2023-05-01T00:48:23.548Z,9.92
2023-05-01T00:51:15.249Z,9.99
2023-05-01T00:54:04.835Z,10.05
2023-05-01T00:56:54.716Z,9.78
2023-05-01T00:59:44.053Z,9.75
2023-05-01T01:02:33.825Z,9.65
2023-05-01T01:05:29.326Z,9.54
2023-05-01T01:08:31.318Z,9.49
2023-05-01T01:11:34.492Z,9.55
2023-05-01T01:14:33.038Z,9.38
2023-05-01T01:17:33.362Z,9.34
2023-05-01T01:20:41.401Z,9.23
2023-05-01T01:24:04.999Z,9.36
2023-05-01T01:27:18.678Z,9.43
2023-05-01T01:30:56.872Z,9.34
2023-05-01T01:34:05.122Z,9.38
2023-05-01T01:37:03.485Z,9.38
2023-05-01T01:40:02.729Z,9.46
2023-05-01T01:43:00.153Z,9.42
2023-05-01T01:45:55.061Z,9.31
2023-05-01T01:48:50.283Z,9.27
2023-05-01T01:51:43.065Z,9.18
2023-05-01T01:54:39.050Z,9.18
2023-05-01T01:57:31.042Z,9.08
2023-05-01T02:00:22.508Z,8.97
2023-05-01T02:03:15.805Z,9.01
2023-05-01T02:06:09.434Z,9.00
2023-05-01T02:09:00.864Z,9.06
2023-05-01T02:11:51.985Z,9.04
2023-05-01T02:14:46.202Z,9.02
2023-05-01T02:17:39.318Z,9.06
2023-05-01T02:20:29.942Z,9.10
2023-05-01T02:23:20.252Z,9.10
2023-05-01T02:26:17.515Z,9.08
2023-05-01T02:29:07.488Z,9.21
2023-05-01T02:31:56.741Z,9.17
2023-05-01T02:34:46.035Z,9.17
2023-05-01T02:37:35.208Z,8.99
2023-05-01T02:40:28.681Z,8.93
2023-05-01T02:43:23.212Z,8.92
2023-05-01T02:46:15.571Z,8.94
2023-05-01T02:49:06.006Z,8.87
2023-05-01T02:51:57.699Z,8.69
2023-05-01T02:54:47.871Z,8.79
2023-05-01T02:57:38.609Z,8.78
2023-05-01T03:00:27.786Z,8.84
2023-05-01T03:03:17.063Z,8.69
2023-05-01T03:06:06.430Z,8.81
2023-05-01T03:08:57.034Z,8.65
2023-05-01T03:11:46.001Z,8.77
2023-05-01T03:14:36.444Z,8.64
2023-05-01T03:17:25.420Z,8.70
2023-05-01T03:20:14.549Z,8.67
2023-05-01T03:23:03.507Z,8.69
2023-05-01T03:25:54.719Z,8.56
2023-05-01T03:28:44.202Z,8.60
2023-05-01T03:31:34.782Z,8.64
2023-05-01T03:34:24.029Z,8.63
2023-05-01T03:37:13.084Z,8.65
2023-05-01T03:40:02.251Z,8.68
2023-05-01T03:43:09.931Z,8.57
2023-05-01T03:45:59.082Z,8.62
2023-05-01T03:48:49.334Z,8.46
2023-05-01T03:51:38.470Z,8.28
2023-05-01T03:54:27.897Z,8.23
2023-05-01T03:57:25.045Z,8.17
2023-05-01T04:00:15.340Z,8.12
2023-05-01T04:03:04.685Z,8.07
2023-05-01T04:05:57.389Z,8.11
2023-05-01T04:08:46.319Z,8.07
2023-05-01T04:11:35.068Z,8.09
2023-05-01T04:14:23.963Z,8.08
2023-05-01T04:17:13.000Z,8.13
2023-05-01T04:20:01.916Z,8.17
2023-05-01T04:22:53.432Z,8.01
2023-05-01T04:25:42.386Z,8.19
2023-05-01T04:28:35.070Z,8.12
2023-05-01T04:31:24.194Z,8.10
2023-05-01T04:34:13.175Z,8.19
2023-05-01T04:37:04.119Z,8.27
2023-05-01T04:39:55.724Z,8.26
2023-05-01T04:42:46.127Z,8.29
2023-05-01T04:45:36.633Z,8.33
2023-05-01T04:48:26.370Z,8.42
2023-05-01T04:51:15.809Z,8.42
2023-05-01T04:54:05.810Z,8.47
2023-05-01T04:56:58.482Z,8.75
2023-05-01T04:59:48.281Z,8.77
2023-05-01T05:02:37.406Z,8.85
2023-05-01T05:05:26.438Z,8.84
2023-05-01T05:08:16.190Z,8.84
2023-05-01T05:11:12.240Z,9.01
2023-05-01T05:14:22.354Z,9.05
2023-05-01T05:17:13.487Z,9.11
2023-05-01T05:20:02.676Z,9.10
2023-05-01T05:22:52.305Z,9.20
2023-05-01T05:25:46.590Z,9.03
2023-05-01T05:28:35.493Z,8.87
2023-05-01T05:31:25.987Z,8.96
2023-05-01T05:34:15.315Z,9.04
2023-05-01T05:37:04.148Z,9.18
2023-05-01T05:39:54.791Z,9.25
2023-05-01T05:42:44.145Z,9.25
2023-05-01T05:45:36.268Z,9.41
2023-05-01T05:48:28.009Z,9.50
2023-05-01T05:51:17.139Z,9.49
2023-05-01T05:54:06.331Z,9.56
2023-05-01T05:56:57.648Z,9.78
2023-05-01T05:59:47.211Z,9.87
2023-05-01T06:02:38.064Z,10.03
2023-05-01T06:05:29.703Z,10.31
2023-05-01T06:08:18.523Z,10.41
2023-05-01T06:11:07.292Z,10.53
2023-05-01T06:14:02.585Z,10.69
2023-05-01T06:16:51.545Z,10.72
2023-05-01T06:19:41.437Z,10.87
2023-05-01T06:22:33.887Z,10.97
2023-05-01T06:25:31.069Z,11.16
2023-05-01T06:28:21.235Z,11.21
2023-05-01T06:31:12.440Z,11.44
2023-05-01T06:34:07.194Z,11.34
2023-05-01T06:37:16.060Z,11.57
2023-05-01T06:40:08.180Z,11.73
2023-05-01T06:42:59.501Z,11.68
2023-05-01T06:45:51.535Z,11.98
2023-05-01T06:48:40.688Z,11.93
2023-05-01T06:51:30.385Z,12.12
2023-05-01T06:54:19.510Z,12.42
2023-05-01T06:57:09.834Z,12.50
2023-05-01T06:59:59.293Z,12.56
2023-05-01T07:02:48.716Z,12.85
2023-05-01T07:05:40.309Z,13.09
2023-05-01T07:08:31.722Z,13.33
2023-05-01T07:11:21.949Z,13.81
2023-05-01T07:14:12.319Z,14.38
2023-05-01T07:17:01.854Z,14.64
2023-05-01T07:19:51.083Z,14.21
2023-05-01T07:22:40.131Z,14.54
2023-05-01T07:25:29.684Z,14.89
2023-05-01T07:28:21.315Z,15.35
2023-05-01T07:31:12.997Z,15.92
2023-05-01T07:34:02.153Z,16.46
2023-05-01T07:36:51.114Z,17.44
2023-05-01T07:39:40.055Z,17.13
2023-05-01T07:42:29.077Z,17.56
2023-05-01T07:45:18.277Z,18.63
2023-05-01T07:48:10.461Z,18.73
2023-05-01T07:51:03.902Z,18.87
2023-05-01T07:53:53.086Z,19.81
2023-05-01T07:56:42.075Z,20.10
2023-05-01T07:59:31.915Z,19.82
2023-05-01T08:02:20.789Z,19.79
2023-05-01T08:05:11.647Z,19.64
2023-05-01T08:08:01.389Z,19.44
2023-05-01T08:10:52.374Z,19.55
2023-05-01T08:13:41.610Z,19.96
2023-05-01T08:16:31.402Z,20.12
2023-05-01T08:19:20.422Z,20.36
2023-05-01T08:22:11.023Z,20.28
2023-05-01T08:24:59.965Z,19.64
2023-05-01T08:27:50.365Z,20.21
2023-05-01T08:30:39.809Z,20.71
2023-05-01T08:33:29.090Z,21.13
2023-05-01T08:36:19.494Z,21.02
2023-05-01T08:39:11.962Z,21.01
2023-05-01T08:42:01.049Z,21.24
2023-05-01T08:44:52.475Z,20.31
2023-05-01T08:47:43.453Z,21.09
2023-05-01T08:50:35.732Z,21.56
2023-05-01T08:53:26.493Z,21.44
2023-05-01T08:56:18.113Z,21.54
2023-05-01T08:59:10.646Z,21.69
2023-05-01T09:02:05.297Z,21.78
2023-05-01T09:04:55.467Z,22.09
2023-05-01T09:07:46.020Z,22.26
2023-05-01T09:10:40.491Z,21.50
2023-05-01T09:13:31.557Z,22.10
2023-05-01T09:16:21.434Z,22.48
2023-05-01T09:19:11.660Z,22.15
2023-05-01T09:22:03.538Z,21.09
2023-05-01T09:24:53.046Z,21.76
2023-05-01T09:27:42.068Z,22.31
2023-05-01T09:30:37.365Z,22.66
2023-05-01T09:33:27.267Z,22.34
2023-05-01T09:36:18.803Z,21.93
2023-05-01T09:39:08.448Z,22.57
2023-05-01T09:41:57.639Z,23.08
2023-05-01T09:44:46.545Z,23.09
2023-05-01T09:47:37.039Z,23.48
2023-05-01T09:50:36.314Z,22.80
2023-05-01T09:53:39.472Z,23.42
2023-05-01T09:56:31.418Z,22.87
2023-05-01T09:59:22.424Z,23.11
2023-05-01T10:02:30.794Z,23.30
2023-05-01T10:05:22.975Z,23.42
2023-05-01T10:08:14.914Z,23.51
2023-05-01T10:11:08.198Z,23.20
2023-05-01T10:14:11.104Z,23.59
2023-05-01T10:17:00.069Z,23.83
2023-05-01T10:19:49.325Z,24.28
2023-05-01T10:22:40.815Z,24.20
2023-05-01T10:25:37.511Z,24.33
2023-05-01T10:28:28.800Z,24.41
2023-05-01T10:31:18.050Z,24.47
2023-05-01T10:34:07.792Z,23.79
2023-05-01T10:37:07.639Z,24.26
2023-05-01T10:39:58.349Z,24.69
2023-05-01T10:43:17.545Z,24.50
2023-05-01T10:46:30.959Z,24.82
2023-05-01T10:49:30.807Z,24.82
2023-05-01T10:52:19.727Z,24.98
2023-05-01T10:55:36.152Z,24.82
2023-05-01T10:58:58.937Z,24.83
2023-05-01T11:01:51.795Z,24.77
2023-05-01T11:04:54.297Z,24.50
2023-05-01T11:07:43.416Z,24.91
2023-05-01T11:10:35.521Z,24.62
2023-05-01T11:13:58.007Z,24.39
2023-05-01T11:16:49.064Z,24.65
2023-05-01T11:19:52.442Z,25.02
2023-05-01T11:22:47.385Z,24.84
2023-05-01T11:25:38.150Z,24.88
2023-05-01T11:28:27.322Z,25.06
2023-05-01T11:31:19.720Z,25.57
2023-05-01T11:34:09.291Z,25.23
2023-05-01T11:36:58.116Z,25.22
2023-05-01T11:39:53.837Z,25.33
2023-05-01T11:42:44.029Z,25.08
2023-05-01T11:45:34.587Z,25.11
2023-05-01T11:48:24.277Z,25.18
2023-05-01T11:51:14.848Z,25.14
2023-05-01T11:54:06.992Z,24.64
2023-05-01T11:57:00.895Z,24.81
2023-05-01T11:59:51.720Z,24.70
2023-05-01T12:02:40.736Z,24.67
2023-05-01T12:05:32.121Z,22.71
2023-05-01T12:08:23.751Z,22.45
2023-05-01T12:11:13.281Z,22.49
2023-05-01T12:14:02.836Z,23.03
2023-05-01T12:16:53.568Z,23.42
2023-05-01T12:19:49.887Z,23.48
2023-05-01T12:22:51.748Z,23.90
2023-05-01T12:25:47.204Z,23.17
2023-05-01T12:28:37.282Z,23.51
2023-05-01T12:31:30.878Z,23.63
2023-05-01T12:34:32.800Z,23.82
2023-05-01T12:37:32.779Z,23.90
2023-05-01T12:40:22.894Z,24.05
2023-05-01T12:43:14.603Z,23.67
2023-05-01T12:46:05.797Z,23.41
2023-05-01T12:48:57.881Z,23.41
2023-05-01T12:51:52.421Z,23.54
2023-05-01T12:54:45.304Z,23.82
2023-05-01T12:57:34.287Z,23.59
2023-05-01T13:00:23.666Z,23.08
2023-05-01T13:03:18.483Z,23.32
2023-05-01T13:06:08.706Z,23.05
2023-05-01T13:09:10.494Z,22.98
2023-05-01T13:12:02.590Z,23.12
2023-05-01T13:14:54.618Z,22.17
2023-05-01T13:17:43.585Z,22.79
2023-05-01T13:20:33.154Z,22.23
2023-05-01T13:23:25.916Z,22.36
2023-05-01T13:26:19.482Z,22.19
2023-05-01T13:29:15.285Z,22.47
2023-05-01T13:32:11.360Z,22.72
2023-05-01T13:35:02.898Z,22.89
2023-05-01T13:37:52.862Z,22.81
2023-05-01T13:40:42.224Z,22.57
2023-05-01T13:43:36.080Z,22.58
2023-05-01T13:46:27.638Z,22.02
2023-05-01T13:49:23.115Z,21.98
2023-05-01T13:52:13.492Z,21.84
2023-05-01T13:55:05.906Z,21.01
2023-05-01T13:57:55.526Z,21.15
2023-05-01T14:01:41.475Z,21.22
2023-05-01T14:04:30.632Z,20.97
2023-05-01T14:07:21.531Z,20.96
2023-05-01T14:10:12.720Z,21.02
2023-05-01T14:13:03.881Z,20.85
2023-05-01T14:15:53.163Z,20.76
2023-05-01T14:18:48.462Z,20.23
2023-05-01T14:21:43.217Z,20.05
2023-05-01T14:24:34.554Z,19.95
2023-05-01T14:27:23.943Z,19.50
2023-05-01T14:30:29.754Z,19.58
2023-05-01T14:33:18.767Z,19.41
2023-05-01T14:36:09.090Z,19.46
2023-05-01T14:38:59.236Z,19.55
2023-05-01T14:42:00.092Z,19.24
2023-05-01T14:44:51.424Z,18.93
2023-05-01T14:47:45.120Z,18.83
2023-05-01T14:50:39.161Z,18.61
2023-05-01T14:53:34.864Z,18.45
2023-05-01T14:56:24.011Z,18.16
2023-05-01T14:59:17.195Z,17.12
2023-05-01T15:02:09.263Z,17.45
2023-05-01T15:04:59.317Z,17.43
2023-05-01T15:07:48.638Z,17.33
2023-05-01T15:10:42.794Z,17.09
2023-05-01T15:13:34.766Z,17.29
2023-05-01T15:16:24.367Z,17.53
2023-05-01T15:19:16.040Z,17.63
2023-05-01T15:22:06.144Z,17.44
2023-05-01T15:24:58.796Z,17.39
2023-05-01T15:27:50.425Z,17.27
2023-05-01T15:30:46.663Z,17.59
2023-05-01T15:33:35.758Z,17.75
2023-05-01T15:36:24.807Z,17.90
2023-05-01T15:39:13.978Z,17.96
2023-05-01T15:42:03.827Z,17.73
2023-05-01T15:44:54.072Z,17.38
2023-05-01T15:47:43.149Z,17.45
2023-05-01T15:50:32.518Z,17.35
2023-05-01T15:53:21.522Z,17.35
2023-05-01T15:56:10.714Z,17.21
2023-05-01T15:59:04.053Z,17.17
2023-05-01T16:01:55.867Z,16.95
2023-05-01T16:04:47.814Z,17.13
2023-05-01T16:07:37.030Z,17.02
2023-05-01T16:10:26.024Z,17.14
2023-05-01T16:13:15.407Z,17.13
2023-05-01T16:16:04.570Z,17.04
2023-05-01T16:18:57.647Z,16.91
2023-05-01T16:21:48.584Z,16.92
2023-05-01T16:24:37.578Z,16.81
2023-05-01T16:27:26.577Z,16.36
2023-05-01T16:30:16.908Z,16.45
2023-05-01T16:33:19.249Z,16.59
2023-05-01T16:36:13.216Z,16.60
2023-05-01T16:39:02.103Z,16.62
2023-05-01T16:41:53.515Z,16.58
2023-05-01T16:44:45.926Z,16.57
2023-05-01T16:47:35.249Z,16.61
2023-05-01T16:50:24.277Z,16.51
2023-05-01T16:53:15.308Z,16.66
2023-05-01T16:56:06.468Z,16.94
2023-05-01T16:58:55.503Z,17.14
2023-05-01T17:01:44.537Z,17.08
2023-05-01T17:04:33.686Z,16.96
2023-05-01T17:07:24.856Z,17.04
2023-05-01T17:10:15.111Z,17.12
2023-05-01T17:13:04.017Z,17.25
2023-05-01T17:15:57.294Z,17.33
2023-05-01T17:18:46.435Z,17.21
2023-05-01T17:21:35.471Z,17.37
2023-05-01T17:24:24.506Z,17.26
2023-05-01T17:27:15.584Z,17.35
2023-05-01T17:30:05.585Z,17.31
2023-05-01T17:37:47.503Z,16.96
2023-05-01T17:40:36.885Z,16.89
2023-05-01T17:43:27.574Z,16.74
2023-05-01T17:46:18.512Z,16.63
2023-05-01T17:49:07.649Z,16.50
2023-05-01T17:51:56.726Z,16.30
2023-05-01T17:54:45.649Z,16.31
2023-05-01T17:57:35.326Z,16.10
2023-05-01T18:00:27.586Z,16.03
2023-05-01T18:03:18.002Z,15.86
2023-05-01T18:06:07.729Z,15.82
2023-05-01T18:08:56.922Z,15.77
2023-05-01T18:11:46.169Z,15.66
2023-05-01T18:14:36.106Z,15.46
2023-05-01T18:17:28.167Z,15.26
2023-05-01T18:20:17.455Z,15.27
2023-05-01T18:23:07.013Z,15.13
2023-05-01T18:25:56.779Z,14.99
2023-05-01T18:28:45.787Z,14.76
2023-05-01T18:31:37.935Z,14.48
2023-05-01T18:34:28.307Z,14.41
2023-05-01T18:37:19.122Z,14.24
2023-05-01T18:40:18.002Z,13.99
2023-05-01T18:43:12.207Z,13.83
2023-05-01T18:46:01.092Z,13.70
2023-05-01T18:48:50.080Z,13.56
2023-05-01T18:51:42.388Z,13.41
2023-05-01T18:54:31.458Z,13.46
2023-05-01T18:57:20.421Z,13.44
2023-05-01T19:00:11.320Z,13.46
2023-05-01T19:03:00.899Z,13.41
2023-05-01T19:05:49.925Z,13.30
2023-05-01T19:08:40.995Z,13.38
2023-05-01T19:11:31.908Z,13.41
2023-05-01T19:14:22.620Z,13.46
2023-05-01T19:17:14.278Z,13.57
2023-05-01T19:20:04.746Z,13.62
2023-05-01T19:22:53.860Z,13.54
2023-05-01T19:25:47.029Z,13.49
2023-05-01T19:28:38.599Z,13.32
2023-05-01T19:31:27.706Z,13.36
2023-05-01T19:34:17.023Z,13.21
2023-05-01T19:37:06.005Z,13.27
2023-05-01T19:39:56.937Z,13.21
2023-05-01T19:42:49.253Z,13.29
2023-05-01T19:45:39.057Z,13.22
2023-05-01T19:48:29.324Z,13.19
2023-05-01T19:51:18.408Z,13.27
2023-05-01T19:54:08.866Z,13.23
2023-05-01T19:56:58.499Z,13.30
2023-05-01T19:59:49.423Z,13.27
2023-05-01T20:02:38.521Z,13.14
2023-05-01T20:05:31.217Z,13.12
2023-05-01T20:08:22.090Z,13.17
2023-05-01T20:11:12.447Z,13.19
2023-05-01T20:14:03.386Z,13.19
2023-05-01T20:16:53.890Z,13.23
2023-05-01T20:19:42.795Z,13.24
2023-05-01T20:22:32.015Z,13.14
2023-05-01T20:25:21.075Z,13.08
2023-05-01T20:28:17.093Z,13.01
2023-05-01T20:31:06.231Z,12.82
2023-05-01T20:33:56.651Z,12.78
2023-05-01T20:36:45.557Z,12.81
2023-05-01T20:39:34.434Z,12.71
2023-05-01T20:42:23.780Z,12.73
2023-05-01T20:45:15.105Z,12.63
2023-05-01T20:48:05.117Z,12.41
2023-05-01T20:50:55.423Z,12.26
2023-05-01T20:53:44.413Z,12.14
2023-05-01T20:56:36.540Z,12.22
2023-05-01T20:59:28.240Z,12.24
2023-05-01T21:02:25.570Z,12.24
2023-05-01T21:05:14.512Z,12.14
2023-05-01T21:08:05.160Z,11.88
2023-05-01T21:10:54.392Z,11.69
2023-05-01T21:13:43.343Z,11.62
2023-05-01T21:16:34.497Z,11.56
2023-05-01T21:19:24.328Z,11.41
2023-05-01T21:22:17.558Z,11.38
2023-05-01T21:25:09.971Z,11.33
2023-05-01T21:28:02.008Z,11.29
2023-05-01T21:30:51.853Z,11.31
2023-05-01T21:33:41.229Z,11.29
2023-05-01T21:36:33.131Z,11.30
2023-05-01T21:39:24.508Z,11.40
2023-05-01T21:42:16.172Z,11.40
2023-05-01T21:45:10.453Z,11.48
2023-05-01T21:47:59.668Z,11.50
2023-05-01T21:50:52.961Z,11.53
2023-05-01T21:53:43.102Z,11.45
2023-05-01T21:56:32.686Z,11.33
2023-05-01T21:59:22.991Z,11.33
2023-05-01T22:02:13.129Z,11.45
2023-05-01T22:05:02.060Z,11.52
2023-05-01T22:07:54.213Z,11.58
2023-05-01T22:10:45.357Z,11.54
2023-05-01T22:13:34.306Z,11.40
2023-05-01T22:16:24.673Z,11.42
2023-05-01T22:19:13.523Z,11.46
2023-05-01T22:22:02.458Z,11.42
2023-05-01T22:24:51.396Z,11.25
2023-05-01T22:27:40.713Z,11.31
2023-05-01T22:30:29.780Z,11.25
2023-05-01T22:33:19.930Z,11.17
2023-05-01T22:36:08.865Z,11.04
2023-05-01T22:38:57.749Z,10.86
2023-05-01T22:41:47.044Z,10.52
2023-05-01T22:44:35.939Z,10.38
2023-05-01T22:47:24.916Z,10.38
2023-05-01T22:50:15.169Z,10.28
2023-05-01T22:53:03.986Z,10.30
2023-05-01T22:55:52.937Z,10.40
2023-05-01T22:58:42.854Z,10.33
2023-05-01T23:01:31.690Z,10.01
2023-05-01T23:04:20.618Z,10.00
2023-05-01T23:07:11.360Z,9.78
2023-05-01T23:10:02.218Z,9.69
2023-05-01T23:12:51.169Z,9.57
2023-05-01T23:15:47.708Z,9.50
2023-05-01T23:18:41.065Z,9.39
2023-05-01T23:21:29.907Z,9.40
2023-05-01T23:24:22.133Z,9.42
2023-05-01T23:27:13.467Z,9.50
2023-05-01T23:30:02.645Z,9.41
2023-05-01T23:32:51.976Z,9.32
2023-05-01T23:35:40.791Z,9.26
2023-05-01T23:38:30.346Z,9.29
2023-05-01T23:41:21.192Z,9.25
2023-05-01T23:44:10.706Z,9.28
2023-05-01T23:47:00.337Z,9.40
2023-05-01T23:49:49.888Z,9.40
2023-05-01T23:52:39.226Z,9.41
2023-05-01T23:55:28.173Z,9.48
2023-05-01T23:58:18.344Z,9.53
